createdAt,value
2022-09-02T00:00:20.586Z,59.30
2022-09-02T00:01:19.566Z,59.62
2022-09-02T00:02:19.597Z,62.36
2022-09-02T00:03:19.749Z,63.33
2022-09-02T00:04:19.577Z,61.23
2022-09-02T00:05:19.526Z,59.78
2022-09-02T00:06:19.521Z,63.49
2022-09-02T00:07:19.515Z,63.16
2022-09-02T00:08:19.492Z,60.42
2022-09-02T00:09:19.516Z,61.39
2022-09-02T00:10:19.477Z,62.36
2022-09-02T00:11:19.463Z,63.16
2022-09-02T00:12:19.460Z,64.78
2022-09-02T00:13:19.550Z,63.49
2022-09-02T00:14:19.452Z,64.61
2022-09-02T00:15:19.420Z,62.36
2022-09-02T00:16:19.420Z,63.49
2022-09-02T00:17:19.407Z,63.97
2022-09-02T00:18:19.400Z,63.97
2022-09-02T00:19:19.409Z,61.87
2022-09-02T00:20:19.377Z,62.84
2022-09-02T00:21:19.373Z,60.59
2022-09-02T00:22:19.354Z,60.91
2022-09-02T00:23:19.405Z,63.16
2022-09-02T00:24:19.359Z,63.33
2022-09-02T00:25:19.334Z,60.59
2022-09-02T00:26:19.316Z,61.55
2022-09-02T00:27:19.345Z,61.23
2022-09-02T00:28:19.329Z,61.39
2022-09-02T00:29:19.306Z,61.87
2022-09-02T00:30:19.283Z,65.10
2022-09-02T00:31:19.326Z,65.90
2022-09-02T00:32:19.272Z,65.26
2022-09-02T00:33:19.272Z,61.39
2022-09-02T00:34:19.251Z,61.71
2022-09-02T00:35:19.229Z,61.39
2022-09-02T00:36:19.222Z,60.42
2022-09-02T00:37:19.206Z,60.59
2022-09-02T00:38:19.188Z,59.14
2022-09-02T00:39:19.199Z,63.00
2022-09-02T00:40:19.244Z,58.33
2022-09-02T00:41:19.155Z,61.87
2022-09-02T00:42:19.150Z,61.39
2022-09-02T00:43:19.167Z,61.23
2022-09-02T00:44:19.155Z,61.07
2022-09-02T00:45:19.128Z,62.20
2022-09-02T00:46:19.111Z,59.78
2022-09-02T00:47:19.103Z,63.16
2022-09-02T00:48:19.096Z,65.42
2022-09-02T00:49:19.108Z,61.39
2022-09-02T00:50:19.064Z,64.13
2022-09-02T00:51:19.053Z,61.23
2022-09-02T00:52:19.059Z,63.97
2022-09-02T00:53:19.107Z,63.33
2022-09-02T00:54:19.054Z,62.36
2022-09-02T00:55:19.017Z,58.97
2022-09-02T00:56:19.016Z,59.30
2022-09-02T00:57:18.995Z,63.65
2022-09-02T00:58:18.979Z,62.04
2022-09-02T00:59:18.998Z,63.49
2022-09-02T01:00:18.970Z,64.29
2022-09-02T01:01:19.070Z,61.71
2022-09-02T01:02:18.999Z,62.04
2022-09-02T01:03:18.959Z,60.91
2022-09-02T01:04:18.942Z,61.55
2022-09-02T01:05:18.916Z,61.39
2022-09-02T01:06:18.911Z,61.71
2022-09-02T01:07:18.893Z,61.87
2022-09-02T01:08:18.893Z,62.04
2022-09-02T01:09:18.904Z,63.00
2022-09-02T01:10:18.868Z,61.39
2022-09-02T01:11:18.893Z,64.78
2022-09-02T01:12:18.866Z,63.33
2022-09-02T01:13:18.840Z,63.49
2022-09-02T01:14:18.849Z,64.29
2022-09-02T01:15:18.814Z,65.26
2022-09-02T01:16:18.860Z,62.20
2022-09-02T01:17:18.806Z,63.49
2022-09-02T01:18:18.777Z,64.45
2022-09-02T01:19:18.796Z,63.33
2022-09-02T01:20:18.793Z,61.07
2022-09-02T01:21:18.806Z,65.10
2022-09-02T01:22:18.754Z,64.61
2022-09-02T01:23:18.804Z,64.61
2022-09-02T01:24:18.745Z,61.23
2022-09-02T01:25:18.719Z,64.13
2022-09-02T01:26:18.704Z,61.39
2022-09-02T01:27:18.690Z,61.71
2022-09-02T01:28:19.699Z,61.55
2022-09-02T01:29:18.695Z,62.84
2022-09-02T01:30:18.674Z,62.52
2022-09-02T01:31:18.715Z,63.16
2022-09-02T01:32:18.645Z,62.20
2022-09-02T01:33:18.702Z,64.94
2022-09-02T01:34:18.637Z,63.49
2022-09-02T01:35:18.620Z,63.97
2022-09-02T01:36:18.594Z,63.97
2022-09-02T01:37:18.584Z,62.04
2022-09-02T01:38:18.579Z,62.84
2022-09-02T01:39:18.586Z,62.04
2022-09-02T01:40:18.620Z,61.07
2022-09-02T01:41:18.552Z,65.42
2022-09-02T01:42:18.550Z,61.87
2022-09-02T01:43:18.542Z,62.04
2022-09-02T01:44:18.541Z,62.20
2022-09-02T01:45:18.514Z,65.74
2022-09-02T01:46:18.519Z,67.03
2022-09-02T01:47:18.491Z,63.00
2022-09-02T01:48:21.498Z,62.04
2022-09-02T01:49:18.525Z,61.71
2022-09-02T01:50:18.463Z,59.94
2022-09-02T01:51:18.464Z,62.04
2022-09-02T01:52:18.441Z,58.33
2022-09-02T01:53:18.515Z,58.97
2022-09-02T01:54:18.434Z,62.84
2022-09-02T01:55:18.414Z,64.45
2022-09-02T01:56:18.452Z,67.19
2022-09-02T01:57:18.397Z,68.48
2022-09-02T01:58:18.380Z,62.68
2022-09-02T01:59:18.392Z,65.10
2022-09-02T02:00:18.359Z,61.71
2022-09-02T02:01:18.433Z,61.07
2022-09-02T02:02:18.403Z,60.91
2022-09-02T02:03:18.332Z,62.84
2022-09-02T02:04:18.338Z,62.04
2022-09-02T02:05:18.305Z,63.33
2022-09-02T02:06:18.287Z,64.13
2022-09-02T02:07:18.281Z,64.45
2022-09-02T02:08:18.278Z,62.68
2022-09-02T02:09:18.282Z,61.71
2022-09-02T02:10:18.253Z,63.33
2022-09-02T02:11:18.239Z,63.81
2022-09-02T02:12:18.232Z,65.42
2022-09-02T02:13:18.227Z,62.04
2022-09-02T02:14:18.241Z,63.16
2022-09-02T02:15:18.200Z,63.16
2022-09-02T02:16:18.221Z,62.04
2022-09-02T02:17:18.178Z,60.59
2022-09-02T02:18:18.189Z,62.36
2022-09-02T02:19:18.174Z,58.33
2022-09-02T02:20:18.148Z,63.49
2022-09-02T02:21:18.137Z,60.75
2022-09-02T02:22:18.121Z,62.04
2022-09-02T02:23:18.147Z,62.84
2022-09-02T02:24:18.129Z,63.97
2022-09-02T02:25:18.100Z,62.68
2022-09-02T02:26:18.104Z,62.52
2022-09-02T02:27:18.079Z,61.55
2022-09-02T02:28:18.065Z,63.16
2022-09-02T02:29:18.079Z,63.97
2022-09-02T02:30:18.048Z,65.90
2022-09-02T02:31:18.098Z,63.33
2022-09-02T02:32:18.027Z,59.30
2022-09-02T02:33:18.033Z,61.71
2022-09-02T02:34:18.032Z,61.39
2022-09-02T02:35:17.997Z,63.97
2022-09-02T02:36:17.988Z,66.06
2022-09-02T02:37:21.088Z,64.78
2022-09-02T02:38:17.977Z,64.29
2022-09-02T02:39:17.972Z,64.61
2022-09-02T02:40:18.043Z,65.10
2022-09-02T02:41:17.928Z,64.13
2022-09-02T02:42:17.929Z,63.49
2022-09-02T02:43:18.008Z,63.97
2022-09-02T02:44:17.924Z,63.49
2022-09-02T02:45:17.883Z,64.61
2022-09-02T02:46:17.963Z,63.33
2022-09-02T02:47:17.871Z,63.49
2022-09-02T02:48:17.871Z,63.65
2022-09-02T02:49:17.865Z,65.26
2022-09-02T02:50:17.830Z,66.06
2022-09-02T02:51:18.859Z,63.81
2022-09-02T02:52:17.818Z,65.90
2022-09-02T02:53:17.864Z,65.42
2022-09-02T02:54:17.815Z,66.06
2022-09-02T02:55:17.860Z,65.26
2022-09-02T02:56:17.771Z,63.00
2022-09-02T02:57:17.760Z,63.16
2022-09-02T02:58:17.748Z,63.16
2022-09-02T02:59:17.766Z,65.26
2022-09-02T03:00:17.800Z,66.06
2022-09-02T03:01:17.762Z,65.58
2022-09-02T03:02:17.856Z,64.78
2022-09-02T03:03:17.777Z,64.78
2022-09-02T03:04:17.744Z,65.58
2022-09-02T03:05:17.680Z,66.87
2022-09-02T03:06:33.279Z,65.58
2022-09-02T03:07:17.651Z,67.03
2022-09-02T03:08:17.643Z,65.58
2022-09-02T03:09:17.649Z,63.97
2022-09-02T03:10:17.620Z,67.68
2022-09-02T03:11:17.611Z,66.39
2022-09-02T03:12:17.592Z,67.03
2022-09-02T03:13:17.612Z,66.39
2022-09-02T03:14:17.603Z,63.33
2022-09-02T03:15:17.577Z,65.42
2022-09-02T03:16:17.612Z,63.16
2022-09-02T03:17:17.549Z,63.16
2022-09-02T03:18:17.554Z,66.06
2022-09-02T03:19:17.552Z,64.13
2022-09-02T03:20:17.523Z,65.10
2022-09-02T03:21:17.512Z,66.39
2022-09-02T03:22:17.502Z,66.39
2022-09-02T03:23:17.513Z,63.49
2022-09-02T03:24:17.502Z,67.19
2022-09-02T03:25:17.525Z,66.23
2022-09-02T03:26:18.583Z,64.61
2022-09-02T03:27:17.466Z,65.42
2022-09-02T03:28:17.440Z,64.78
2022-09-02T03:29:17.450Z,65.74
2022-09-02T03:30:17.421Z,64.94
2022-09-02T03:31:17.429Z,66.23
2022-09-02T03:32:17.400Z,66.87
2022-09-02T03:33:17.419Z,66.71
2022-09-02T03:34:17.402Z,65.10
2022-09-02T03:35:17.382Z,66.39
2022-09-02T03:36:17.363Z,67.51
2022-09-02T03:37:17.351Z,67.68
2022-09-02T03:38:17.343Z,67.68
2022-09-02T03:39:17.348Z,67.19
2022-09-02T03:40:18.356Z,67.35
2022-09-02T03:41:17.319Z,65.58
2022-09-02T03:42:19.332Z,66.06
2022-09-02T03:43:17.380Z,66.87
2022-09-02T03:44:17.302Z,66.39
2022-09-02T03:45:17.277Z,65.58
2022-09-02T03:46:17.316Z,65.42
2022-09-02T03:47:17.250Z,65.42
2022-09-02T03:48:17.237Z,67.51
2022-09-02T03:49:17.242Z,66.71
2022-09-02T03:50:17.219Z,66.71
2022-09-02T03:51:17.211Z,66.23
2022-09-02T03:52:17.189Z,67.03
2022-09-02T03:53:19.947Z,65.90
2022-09-02T03:54:17.201Z,65.58
2022-09-02T03:55:17.173Z,67.19
2022-09-02T03:56:17.158Z,67.84
2022-09-02T03:57:17.152Z,65.42
2022-09-02T03:58:17.146Z,66.06
2022-09-02T03:59:17.154Z,68.00
2022-09-02T04:00:17.130Z,67.19
2022-09-02T04:01:17.211Z,65.74
2022-09-02T04:02:17.221Z,66.39
2022-09-02T04:03:17.163Z,66.55
2022-09-02T04:04:22.192Z,66.23
2022-09-02T04:05:18.079Z,66.87
2022-09-02T04:06:17.066Z,65.90
2022-09-02T04:07:17.053Z,65.58
2022-09-02T04:08:17.033Z,67.35
2022-09-02T04:09:17.058Z,68.16
2022-09-02T04:10:17.014Z,66.06
2022-09-02T04:11:17.008Z,65.90
2022-09-02T04:12:16.994Z,66.87
2022-09-02T04:13:17.064Z,66.87
2022-09-02T04:14:16.993Z,66.87
2022-09-02T04:15:16.968Z,67.03
2022-09-02T04:16:17.008Z,66.87
2022-09-02T04:17:16.948Z,67.03
2022-09-02T04:18:16.931Z,65.74
2022-09-02T04:19:16.947Z,67.35
2022-09-02T04:20:16.903Z,67.03
2022-09-02T04:21:16.906Z,68.00
2022-09-02T04:22:16.892Z,66.87
2022-09-02T04:23:16.885Z,65.90
2022-09-02T04:24:16.927Z,65.10
2022-09-02T04:25:16.882Z,68.16
2022-09-02T04:26:16.848Z,65.58
2022-09-02T04:27:16.841Z,67.35
2022-09-02T04:28:16.830Z,66.71
2022-09-02T04:29:16.840Z,66.87
2022-09-02T04:30:17.571Z,66.39
2022-09-02T04:31:16.857Z,65.58
2022-09-02T04:32:16.785Z,66.39
2022-09-02T04:33:16.784Z,67.19
2022-09-02T04:34:16.794Z,67.19
2022-09-02T04:35:16.755Z,66.23
2022-09-02T04:36:16.750Z,66.39
2022-09-02T04:37:16.777Z,67.19
2022-09-02T04:38:16.731Z,67.51
2022-09-02T04:39:16.738Z,67.03
2022-09-02T04:40:16.746Z,65.26
2022-09-02T04:41:16.702Z,66.23
2022-09-02T04:42:16.686Z,65.74
2022-09-02T04:43:16.684Z,66.23
2022-09-02T04:44:16.686Z,66.06
2022-09-02T04:45:16.661Z,66.39
2022-09-02T04:46:16.718Z,66.06
2022-09-02T04:47:16.650Z,66.39
2022-09-02T04:48:16.620Z,67.03
2022-09-02T04:49:16.634Z,65.90
2022-09-02T04:50:16.603Z,66.23
2022-09-02T04:51:16.595Z,65.74
2022-09-02T04:52:16.586Z,65.26
2022-09-02T04:53:16.563Z,68.00
2022-09-02T04:54:16.589Z,65.42
2022-09-02T04:55:16.565Z,65.26
2022-09-02T04:56:16.553Z,65.42
2022-09-02T04:57:16.532Z,65.58
2022-09-02T04:58:16.518Z,66.06
2022-09-02T04:59:16.535Z,66.55
2022-09-02T05:00:16.503Z,66.39
2022-09-02T05:01:16.555Z,65.90
2022-09-02T05:02:16.648Z,66.55
2022-09-02T05:03:16.467Z,65.58
2022-09-02T05:04:16.480Z,66.87
2022-09-02T05:05:16.451Z,65.10
2022-09-02T05:06:16.444Z,64.94
2022-09-02T05:07:16.435Z,66.23
2022-09-02T05:08:16.421Z,67.51
2022-09-02T05:09:16.428Z,66.06
2022-09-02T05:10:16.404Z,66.39
2022-09-02T05:11:16.394Z,65.26
2022-09-02T05:12:16.381Z,66.23
2022-09-02T05:13:16.361Z,66.87
2022-09-02T05:14:16.412Z,66.55
2022-09-02T05:15:16.355Z,66.23
2022-09-02T05:16:16.349Z,66.71
2022-09-02T05:17:16.328Z,68.32
2022-09-02T05:18:16.326Z,64.78
2022-09-02T05:19:16.405Z,66.39
2022-09-02T05:20:16.300Z,67.19
2022-09-02T05:21:16.285Z,66.55
2022-09-02T05:22:16.277Z,66.39
2022-09-02T05:23:16.264Z,67.19
2022-09-02T05:24:16.275Z,66.87
2022-09-02T05:25:16.232Z,65.26
2022-09-02T05:26:16.240Z,66.87
2022-09-02T05:27:16.410Z,67.03
2022-09-02T05:28:16.212Z,67.19
2022-09-02T05:29:16.210Z,67.19
2022-09-02T05:30:16.197Z,65.58
2022-09-02T05:31:16.247Z,65.42
2022-09-02T05:32:16.169Z,65.58
2022-09-02T05:33:16.167Z,65.42
2022-09-02T05:34:16.176Z,65.10
2022-09-02T05:35:16.160Z,65.42
2022-09-02T05:36:16.141Z,66.23
2022-09-02T05:37:16.127Z,66.71
2022-09-02T05:38:16.124Z,66.06
2022-09-02T05:39:16.145Z,65.42
2022-09-02T05:40:16.151Z,66.39
2022-09-02T05:41:16.101Z,64.61
2022-09-02T05:42:16.085Z,65.42
2022-09-02T05:43:16.067Z,66.55
2022-09-02T05:44:16.077Z,65.58
2022-09-02T05:45:16.676Z,64.78
2022-09-02T05:46:16.080Z,65.90
2022-09-02T05:47:16.028Z,66.39
2022-09-02T05:48:16.024Z,65.10
2022-09-02T05:49:16.030Z,66.87
2022-09-02T05:50:16.007Z,66.55
2022-09-02T05:51:15.991Z,66.06
2022-09-02T05:52:15.990Z,65.58
2022-09-02T05:53:16.053Z,66.55
2022-09-02T05:54:15.983Z,65.90
2022-09-02T05:55:15.957Z,66.87
2022-09-02T05:56:15.946Z,66.23
2022-09-02T05:57:15.925Z,67.03
2022-09-02T05:58:15.927Z,67.35
2022-09-02T05:59:15.932Z,63.97
2022-09-02T06:00:18.255Z,65.26
2022-09-02T06:01:15.891Z,65.42
2022-09-02T06:02:15.970Z,65.58
2022-09-02T06:03:16.024Z,65.26
2022-09-02T06:04:15.940Z,65.58
2022-09-02T06:05:15.837Z,64.94
2022-09-02T06:06:15.847Z,66.87
2022-09-02T06:07:15.838Z,65.26
2022-09-02T06:08:15.825Z,65.26
2022-09-02T06:09:15.831Z,63.81
2022-09-02T06:10:15.804Z,64.94
2022-09-02T06:11:15.799Z,64.94
2022-09-02T06:12:15.787Z,65.42
2022-09-02T06:13:15.778Z,64.94
2022-09-02T06:14:15.781Z,65.58
2022-09-02T06:15:15.752Z,64.29
2022-09-02T06:16:16.785Z,64.61
2022-09-02T06:17:15.734Z,63.00
2022-09-02T06:18:15.720Z,64.61
2022-09-02T06:19:20.150Z,62.36
2022-09-02T06:20:16.823Z,63.65
2022-09-02T06:21:15.701Z,63.49
2022-09-02T06:22:15.688Z,62.84
2022-09-02T06:23:15.672Z,64.45
2022-09-02T06:24:15.682Z,64.94
2022-09-02T06:25:15.659Z,62.68
2022-09-02T06:26:15.640Z,62.52
2022-09-02T06:27:15.633Z,63.33
2022-09-02T06:28:15.624Z,65.10
2022-09-02T06:29:15.637Z,63.49
2022-09-02T06:30:15.613Z,64.45
2022-09-02T06:31:15.638Z,64.45
2022-09-02T06:32:15.581Z,62.36
2022-09-02T06:33:15.572Z,62.68
2022-09-02T06:34:16.583Z,61.71
2022-09-02T06:35:15.559Z,63.00
2022-09-02T06:36:15.524Z,64.78
2022-09-02T06:37:15.529Z,61.71
2022-09-02T06:38:15.532Z,62.04
2022-09-02T06:39:15.532Z,63.00
2022-09-02T06:40:15.619Z,65.42
2022-09-02T06:41:15.494Z,63.00
2022-09-02T06:42:15.485Z,63.65
2022-09-02T06:43:15.482Z,63.00
2022-09-02T06:44:15.481Z,63.81
2022-09-02T06:45:15.462Z,64.13
2022-09-02T06:46:15.502Z,63.33
2022-09-02T06:47:15.440Z,63.16
2022-09-02T06:48:15.434Z,64.13
2022-09-02T06:49:15.444Z,63.97
2022-09-02T06:50:15.413Z,63.81
2022-09-02T06:51:15.397Z,63.00
2022-09-02T06:52:15.394Z,65.10
2022-09-02T06:53:15.376Z,63.16
2022-09-02T06:54:15.385Z,63.00
2022-09-02T06:55:15.355Z,65.10
2022-09-02T06:56:15.342Z,62.52
2022-09-02T06:57:15.336Z,63.00
2022-09-02T06:58:15.323Z,63.81
2022-09-02T06:59:15.340Z,62.68
2022-09-02T07:00:15.304Z,64.29
2022-09-02T07:01:15.383Z,62.52
2022-09-02T07:03:15.289Z,62.68
2022-09-02T07:04:15.286Z,63.33
2022-09-02T07:05:16.060Z,62.68
2022-09-02T07:06:15.241Z,61.55
2022-09-02T07:07:15.257Z,63.16
2022-09-02T07:08:15.219Z,64.13
2022-09-02T07:09:15.235Z,63.81
2022-09-02T07:10:15.205Z,63.49
2022-09-02T07:11:15.252Z,61.55
2022-09-02T07:12:15.181Z,62.84
2022-09-02T07:13:15.310Z,62.52
2022-09-02T07:14:15.189Z,64.45
2022-09-02T07:15:15.172Z,61.55
2022-09-02T07:16:18.374Z,62.36
2022-09-02T07:17:16.202Z,62.52
2022-09-02T07:18:15.127Z,63.16
2022-09-02T07:19:19.912Z,61.39
2022-09-02T07:20:16.107Z,62.20
2022-09-02T07:21:15.094Z,59.94
2022-09-02T07:22:18.056Z,61.55
2022-09-02T07:23:15.071Z,61.71
2022-09-02T07:24:15.080Z,63.49
2022-09-02T07:25:15.063Z,59.14
2022-09-02T07:26:15.039Z,61.23
2022-09-02T07:27:15.037Z,62.52
2022-09-02T07:28:15.024Z,62.68
2022-09-02T07:29:15.033Z,62.84
2022-09-02T07:30:15.008Z,62.04
2022-09-02T07:31:15.070Z,63.00
2022-09-02T07:32:14.989Z,64.61
2022-09-02T07:33:14.979Z,61.55
2022-09-02T07:34:14.979Z,62.84
2022-09-02T07:35:14.958Z,63.16
2022-09-02T07:36:14.945Z,61.87
2022-09-02T07:37:14.934Z,63.65
2022-09-02T07:38:14.920Z,63.00
2022-09-02T07:39:14.940Z,62.20
2022-09-02T07:40:14.935Z,63.81
2022-09-02T07:41:14.898Z,63.81
2022-09-02T07:42:14.971Z,62.52
2022-09-02T07:43:14.879Z,61.23
2022-09-02T07:44:14.884Z,62.68
2022-09-02T07:45:14.855Z,62.20
2022-09-02T07:46:14.944Z,61.71
2022-09-02T07:47:14.833Z,62.20
2022-09-02T07:48:14.814Z,60.10
2022-09-02T07:49:14.829Z,62.68
2022-09-02T07:50:16.986Z,63.33
2022-09-02T07:51:15.792Z,63.81
2022-09-02T07:52:14.784Z,62.04
2022-09-02T07:53:15.775Z,61.39
2022-09-02T07:54:14.783Z,61.87
2022-09-02T07:55:15.257Z,61.39
2022-09-02T07:56:15.759Z,62.04
2022-09-02T07:57:14.740Z,63.81
2022-09-02T07:58:16.130Z,64.45
2022-09-02T07:59:14.749Z,63.16
2022-09-02T08:00:14.701Z,62.68
2022-09-02T08:01:14.851Z,63.16
2022-09-02T08:02:14.714Z,63.00
2022-09-02T08:03:14.677Z,65.10
2022-09-02T08:04:14.681Z,61.55
2022-09-02T08:05:14.652Z,61.07
2022-09-02T08:06:14.642Z,61.07
2022-09-02T08:07:14.631Z,61.07
2022-09-02T08:08:14.613Z,62.36
2022-09-02T08:09:14.634Z,63.65
2022-09-02T08:10:14.597Z,62.52
2022-09-02T08:11:14.587Z,61.87
2022-09-02T08:12:17.723Z,60.75
2022-09-02T08:13:15.567Z,61.55
2022-09-02T08:14:14.575Z,60.10
2022-09-02T08:15:14.558Z,62.20
2022-09-02T08:16:14.606Z,62.04
2022-09-02T08:17:14.528Z,61.07
2022-09-02T08:18:19.144Z,61.87
2022-09-02T08:19:15.529Z,64.78
2022-09-02T08:20:14.492Z,61.87
2022-09-02T08:21:14.487Z,61.23
2022-09-02T08:22:14.485Z,61.07
2022-09-02T08:23:36.303Z,59.94
2022-09-02T08:24:16.481Z,61.55
2022-09-02T08:25:14.453Z,61.07
2022-09-02T08:26:14.447Z,60.10
2022-09-02T08:27:14.439Z,62.36
2022-09-02T08:28:14.455Z,63.16
2022-09-02T08:29:14.431Z,60.75
2022-09-02T08:30:14.399Z,60.42
2022-09-02T08:31:14.383Z,61.55
2022-09-02T08:32:14.421Z,60.26
2022-09-02T08:33:14.428Z,62.04
2022-09-02T08:34:14.377Z,59.78
2022-09-02T08:35:14.350Z,61.87
2022-09-02T08:36:14.339Z,60.91
2022-09-02T08:37:14.326Z,60.26
2022-09-02T08:38:14.318Z,61.55
2022-09-02T08:39:14.376Z,60.42
2022-09-02T08:40:14.373Z,59.94
2022-09-02T08:41:14.289Z,61.23
2022-09-02T08:42:14.276Z,59.46
2022-09-02T08:43:14.315Z,61.23
2022-09-02T08:44:14.279Z,62.04
2022-09-02T08:45:14.240Z,60.26
2022-09-02T08:46:14.327Z,59.94
2022-09-02T08:47:14.226Z,59.46
2022-09-02T08:48:14.220Z,61.07
2022-09-02T08:49:14.224Z,58.49
2022-09-02T08:50:14.210Z,60.26
2022-09-02T08:51:14.190Z,59.62
2022-09-02T08:52:17.664Z,59.14
2022-09-02T08:53:14.189Z,59.94
2022-09-02T08:54:14.180Z,58.33
2022-09-02T08:55:14.149Z,59.46
2022-09-02T08:56:14.155Z,59.46
2022-09-02T08:57:14.123Z,59.46
2022-09-02T08:58:14.112Z,59.46
2022-09-02T08:59:14.118Z,58.49
2022-09-02T09:00:14.084Z,56.88
2022-09-02T09:01:14.148Z,56.88
2022-09-02T09:02:17.607Z,58.17
2022-09-02T09:03:14.120Z,56.88
2022-09-02T09:04:14.071Z,57.69
2022-09-02T09:05:14.042Z,58.97
2022-09-02T09:06:14.036Z,58.01
2022-09-02T09:07:39.926Z,57.36
2022-09-02T09:08:14.849Z,56.72
2022-09-02T09:09:14.021Z,58.97
2022-09-02T09:10:14.001Z,58.33
2022-09-02T09:11:13.990Z,59.14
2022-09-02T09:12:13.979Z,60.10
2022-09-02T09:13:13.966Z,60.91
2022-09-02T09:14:13.977Z,58.97
2022-09-02T09:15:13.953Z,58.97
2022-09-02T09:16:13.951Z,58.17
2022-09-02T09:17:13.934Z,58.49
2022-09-02T09:18:13.982Z,57.52
2022-09-02T09:19:13.923Z,57.85
2022-09-02T09:20:13.895Z,59.14
2022-09-02T09:21:13.960Z,58.33
2022-09-02T09:22:13.871Z,57.85
2022-09-02T09:23:14.738Z,58.49
2022-09-02T09:24:13.870Z,58.97
2022-09-02T09:25:13.841Z,58.33
2022-09-02T09:26:13.829Z,58.81
2022-09-02T09:27:13.821Z,58.01
2022-09-02T09:28:13.816Z,59.14
2022-09-02T09:29:13.818Z,57.52
2022-09-02T09:30:15.549Z,57.20
2022-09-02T09:31:14.814Z,57.04
2022-09-02T09:32:13.796Z,56.40
2022-09-02T09:33:13.763Z,56.24
2022-09-02T09:34:13.763Z,57.36
2022-09-02T09:35:13.745Z,57.20
2022-09-02T09:36:13.763Z,56.56
2022-09-02T09:37:13.720Z,56.07
2022-09-02T09:38:13.722Z,55.75
2022-09-02T09:39:13.718Z,55.91
2022-09-02T09:40:13.713Z,56.40
2022-09-02T09:41:13.677Z,56.40
2022-09-02T09:42:13.671Z,56.88
2022-09-02T09:43:14.829Z,55.75
2022-09-02T09:44:13.672Z,57.04
2022-09-02T09:45:13.637Z,57.52
2022-09-02T09:46:13.701Z,57.52
2022-09-02T09:47:17.797Z,57.04
2022-09-02T09:48:14.613Z,57.04
2022-09-02T09:49:13.626Z,57.20
2022-09-02T09:50:13.599Z,57.04
2022-09-02T09:51:13.577Z,53.98
2022-09-02T09:52:13.576Z,56.24
2022-09-02T09:53:13.610Z,55.43
2022-09-02T09:54:13.572Z,55.43
2022-09-02T09:55:13.538Z,56.72
2022-09-02T09:56:13.543Z,55.43
2022-09-02T09:57:13.529Z,56.24
2022-09-02T09:58:13.513Z,53.82
2022-09-02T09:59:13.526Z,53.50
2022-09-02T10:00:13.507Z,53.98
2022-09-02T10:01:13.520Z,54.30
2022-09-02T10:02:13.630Z,55.75
2022-09-02T10:03:13.472Z,56.56
2022-09-02T10:04:39.348Z,56.56
2022-09-02T10:05:15.450Z,56.88
2022-09-02T10:06:13.440Z,57.69
2022-09-02T10:07:13.632Z,56.07
2022-09-02T10:08:15.320Z,57.85
2022-09-02T10:09:13.426Z,58.33
2022-09-02T10:10:13.392Z,56.40
2022-09-02T10:11:13.378Z,56.88
2022-09-02T10:12:13.385Z,55.75
2022-09-02T10:13:13.404Z,55.75
2022-09-02T10:14:13.390Z,57.04
2022-09-02T10:15:13.339Z,58.49
2022-09-02T10:16:13.390Z,57.69
2022-09-02T10:17:13.346Z,57.85
2022-09-02T10:18:13.321Z,58.49
2022-09-02T10:19:13.312Z,57.69
2022-09-02T10:20:13.301Z,55.91
2022-09-02T10:21:15.302Z,56.72
2022-09-02T10:22:14.282Z,55.75
2022-09-02T10:23:13.278Z,55.75
2022-09-02T10:24:13.277Z,53.50
2022-09-02T10:25:13.250Z,55.91
2022-09-02T10:26:13.293Z,55.43
2022-09-02T10:27:13.229Z,57.52
2022-09-02T10:28:13.212Z,51.24
2022-09-02T10:29:14.231Z,57.69
2022-09-02T10:30:13.203Z,55.91
2022-09-02T10:31:13.213Z,55.43
2022-09-02T10:32:13.182Z,56.07
2022-09-02T10:33:13.167Z,52.53
2022-09-02T10:34:13.174Z,54.62
2022-09-02T10:35:13.141Z,56.40
2022-09-02T10:36:18.923Z,56.88
2022-09-02T10:37:15.130Z,54.14
2022-09-02T10:38:13.120Z,56.07
2022-09-02T10:39:13.125Z,57.52
2022-09-02T10:40:13.150Z,56.72
2022-09-02T10:41:13.095Z,54.79
2022-09-02T10:42:13.084Z,54.46
2022-09-02T10:43:13.090Z,54.95
2022-09-02T10:44:13.076Z,55.75
2022-09-02T10:45:13.043Z,57.04
2022-09-02T10:46:13.097Z,56.72
2022-09-02T10:47:13.037Z,57.20
2022-09-02T10:48:13.021Z,56.40
2022-09-02T10:49:13.050Z,54.95
2022-09-02T10:50:13.007Z,53.17
2022-09-02T10:51:12.985Z,53.50
2022-09-02T10:52:13.015Z,53.01
2022-09-02T10:53:12.974Z,53.98
2022-09-02T10:54:12.980Z,53.66
2022-09-02T10:55:12.941Z,53.33
2022-09-02T10:56:12.940Z,54.95
2022-09-02T10:57:12.930Z,54.30
2022-09-02T10:58:12.925Z,54.95
2022-09-02T10:59:12.935Z,53.50
2022-09-02T11:00:13.043Z,53.50
2022-09-02T11:01:13.008Z,52.37
2022-09-02T11:02:12.880Z,53.33
2022-09-02T11:03:12.924Z,54.79
2022-09-02T11:04:12.896Z,55.91
2022-09-02T11:05:12.857Z,55.59
2022-09-02T11:06:12.854Z,55.43
2022-09-02T11:07:12.844Z,53.82
2022-09-02T11:08:12.825Z,55.59
2022-09-02T11:09:12.833Z,53.50
2022-09-02T11:10:12.919Z,54.30
2022-09-02T11:11:12.794Z,55.59
2022-09-02T11:12:12.794Z,51.72
2022-09-02T11:13:12.773Z,55.11
2022-09-02T11:14:12.785Z,53.66
2022-09-02T11:15:12.749Z,51.56
2022-09-02T11:16:12.813Z,55.27
2022-09-02T11:17:13.231Z,53.98
2022-09-02T11:19:12.738Z,53.33
2022-09-02T11:20:12.748Z,54.14
2022-09-02T11:21:12.713Z,51.88
2022-09-02T11:22:12.680Z,52.85
2022-09-02T11:23:12.671Z,54.46
2022-09-02T11:24:12.690Z,51.88
2022-09-02T11:25:12.649Z,53.98
2022-09-02T11:26:12.638Z,51.88
2022-09-02T11:27:25.824Z,54.62
2022-09-02T11:28:14.477Z,54.14
2022-09-02T11:29:12.620Z,54.14
2022-09-02T11:30:12.670Z,54.30
2022-09-02T11:31:12.581Z,52.85
2022-09-02T11:32:12.579Z,50.11
2022-09-02T11:33:12.569Z,51.24
2022-09-02T11:34:12.579Z,54.46
2022-09-02T11:35:12.549Z,52.69
2022-09-02T11:36:12.539Z,52.53
2022-09-02T11:37:13.185Z,52.21
2022-09-02T11:38:12.523Z,54.46
2022-09-02T11:39:12.529Z,54.46
2022-09-02T11:40:33.152Z,52.69
2022-09-02T11:42:14.594Z,55.91
2022-09-02T11:43:12.468Z,54.79
2022-09-02T11:44:13.479Z,51.88
2022-09-02T11:45:12.491Z,56.40
2022-09-02T11:46:12.501Z,55.59
2022-09-02T11:47:12.435Z,56.24
2022-09-02T11:48:12.423Z,55.75
2022-09-02T11:49:12.429Z,51.88
2022-09-02T11:50:12.430Z,54.95
2022-09-02T11:51:12.452Z,53.66
2022-09-02T11:52:12.432Z,50.60
2022-09-02T11:53:12.372Z,53.33
2022-09-02T11:54:12.385Z,52.05
2022-09-02T11:55:12.348Z,51.24
2022-09-02T11:56:12.358Z,51.08
2022-09-02T11:57:12.343Z,51.88
2022-09-02T11:58:12.324Z,57.69
2022-09-02T11:59:12.345Z,55.59
2022-09-02T12:00:12.306Z,55.43
2022-09-02T12:01:13.712Z,58.49
2022-09-02T12:02:12.290Z,57.85
2022-09-02T12:03:38.869Z,56.56
2022-09-02T12:04:56.031Z,54.46
2022-09-02T12:05:14.385Z,55.91
2022-09-02T12:06:12.335Z,53.98
2022-09-02T12:07:12.332Z,53.01
2022-09-02T12:08:12.239Z,53.33
2022-09-02T12:09:12.237Z,53.50
2022-09-02T12:10:12.210Z,54.79
2022-09-02T12:11:12.202Z,50.92
2022-09-02T12:12:12.187Z,52.69
2022-09-02T12:13:12.199Z,52.21
2022-09-02T12:14:12.193Z,53.66
2022-09-02T12:15:12.151Z,53.50
2022-09-02T12:16:12.211Z,54.14
2022-09-02T12:17:12.199Z,57.36
2022-09-02T12:18:12.127Z,52.85
2022-09-02T12:19:13.084Z,53.66
2022-09-02T12:20:12.103Z,52.05
2022-09-02T12:21:18.376Z,53.17
2022-09-02T12:22:13.087Z,52.37
2022-09-02T12:23:12.070Z,55.43
2022-09-02T12:24:12.109Z,53.17
2022-09-02T12:25:12.061Z,53.33
2022-09-02T12:26:15.861Z,50.92
2022-09-02T12:27:12.039Z,53.50
2022-09-02T12:28:12.034Z,54.46
2022-09-02T12:29:13.041Z,54.46
2022-09-02T12:30:12.017Z,54.14
2022-09-02T12:31:12.016Z,54.30
2022-09-02T12:32:12.003Z,57.85
2022-09-02T12:33:11.983Z,58.01
2022-09-02T12:34:11.968Z,55.75
2022-09-02T12:35:11.968Z,53.82
2022-09-02T12:36:12.954Z,51.88
2022-09-02T12:37:11.946Z,55.59
2022-09-02T12:38:11.935Z,53.33
2022-09-02T12:39:11.926Z,52.05
2022-09-02T12:40:13.093Z,55.43
2022-09-02T12:41:12.310Z,56.24
2022-09-02T12:42:11.891Z,55.11
2022-09-02T12:43:11.885Z,54.46
2022-09-02T12:44:11.875Z,55.43
2022-09-02T12:45:11.883Z,50.76
2022-09-02T12:46:11.954Z,56.56
2022-09-02T12:47:11.842Z,53.01
2022-09-02T12:48:11.853Z,53.01
2022-09-02T12:49:11.820Z,53.17
2022-09-02T12:50:11.830Z,55.11
2022-09-02T12:51:12.860Z,53.33
2022-09-02T12:52:11.799Z,55.43
2022-09-02T12:53:11.789Z,54.62
2022-09-02T12:54:11.778Z,55.75
2022-09-02T12:55:11.786Z,56.72